createdAt,value
2022-12-23T00:00:23.418Z,88.99
2022-12-23T00:01:29.527Z,89.47
2022-12-23T00:02:33.897Z,89.41
2022-12-23T00:03:39.576Z,89.40
2022-12-23T00:04:44.708Z,89.38
2022-12-23T00:05:51.209Z,89.27
2022-12-23T00:07:00.293Z,88.94
2022-12-23T00:08:06.383Z,89.22
2022-12-23T00:09:11.172Z,89.10
2022-12-23T00:10:15.148Z,89.46
2022-12-23T00:11:21.198Z,89.48
2022-12-23T00:12:44.639Z,88.94
2022-12-23T00:14:07.703Z,89.13
2022-12-23T00:15:14.591Z,89.19
2022-12-23T00:16:20.973Z,89.47
2022-12-23T00:17:26.112Z,89.34
2022-12-23T00:18:30.451Z,89.36
2022-12-23T00:19:34.187Z,89.42
2022-12-23T00:20:38.159Z,89.51
2022-12-23T00:21:41.924Z,89.75
2022-12-23T00:23:05.197Z,89.60
2022-12-23T00:24:26.539Z,90.14
2022-12-23T00:25:42.395Z,90.37
2022-12-23T00:26:46.185Z,90.13
2022-12-23T00:28:05.571Z,90.48
2022-12-23T00:29:10.349Z,90.69
2022-12-23T00:30:17.045Z,91.03
2022-12-23T00:31:21.513Z,91.01
2022-12-23T00:32:29.167Z,90.67
2022-12-23T00:33:38.266Z,90.66
2022-12-23T00:34:47.374Z,90.75
2022-12-23T00:35:56.117Z,91.38
2022-12-23T00:37:02.609Z,91.23
2022-12-23T00:38:07.014Z,91.49
2022-12-23T00:39:36.853Z,91.51
2022-12-23T00:41:00.845Z,91.47
2022-12-23T00:42:45.859Z,92.27
2022-12-23T00:44:10.540Z,92.14
2022-12-23T00:45:23.103Z,92.05
2022-12-23T00:46:28.599Z,92.07
2022-12-23T00:47:51.258Z,92.73
2022-12-23T00:49:15.647Z,93.59
2022-12-23T00:50:20.996Z,93.58
2022-12-23T00:51:35.620Z,93.99
2022-12-23T00:52:41.157Z,94.75
2022-12-23T00:53:45.605Z,96.48
2022-12-23T00:55:00.798Z,96.80
2022-12-23T00:56:06.005Z,96.34
2022-12-23T00:57:18.171Z,97.25
2022-12-23T00:58:24.708Z,97.30
2022-12-23T00:59:30.877Z,97.71
2022-12-23T01:01:05.800Z,98.14
2022-12-23T01:02:51.451Z,98.78
2022-12-23T01:04:16.474Z,98.96
2022-12-23T01:05:39.483Z,99.46
2022-12-23T01:06:43.507Z,99.04
2022-12-23T01:07:58.041Z,98.62
2022-12-23T01:09:02.182Z,98.58
2022-12-23T01:10:10.470Z,98.76
2022-12-23T01:11:15.267Z,98.75
2022-12-23T01:12:24.395Z,99.60
2022-12-23T01:13:28.816Z,100.00
2022-12-23T01:14:36.141Z,100.00
2022-12-23T01:15:39.646Z,100.00
2022-12-23T01:16:49.451Z,100.00
2022-12-23T01:17:53.149Z,100.00
2022-12-23T01:18:56.880Z,100.00
2022-12-23T01:20:00.744Z,100.00
2022-12-23T01:21:15.043Z,100.00
2022-12-23T01:22:19.079Z,100.00
2022-12-23T01:23:22.698Z,100.00
2022-12-23T01:24:33.785Z,100.00
2022-12-23T01:25:37.894Z,100.00
2022-12-23T01:26:43.070Z,100.00
2022-12-23T01:27:46.878Z,100.00
2022-12-23T01:28:58.131Z,100.00
2022-12-23T01:30:29.346Z,100.00
2022-12-23T01:33:31.444Z,100.00
2022-12-23T01:34:37.373Z,100.00
2022-12-23T01:35:44.450Z,100.00
2022-12-23T01:36:50.155Z,100.00
2022-12-23T01:37:54.351Z,100.00
2022-12-23T01:38:58.557Z,100.00
2022-12-23T01:40:04.552Z,100.00
2022-12-23T01:41:39.542Z,100.00
2022-12-23T01:42:53.836Z,100.00
2022-12-23T01:43:58.602Z,100.00
2022-12-23T01:45:18.319Z,100.00
2022-12-23T01:46:22.948Z,100.00
2022-12-23T01:47:53.437Z,100.00
2022-12-23T01:49:05.465Z,100.00
2022-12-23T01:50:33.270Z,100.00
2022-12-23T01:51:37.857Z,100.00
2022-12-23T01:53:06.851Z,100.00
2022-12-23T01:54:13.445Z,100.00
2022-12-23T01:55:25.463Z,100.00
2022-12-23T01:56:40.947Z,100.00
2022-12-23T01:57:47.640Z,100.00
2022-12-23T01:59:37.195Z,100.00
2022-12-23T02:01:20.493Z,100.00
2022-12-23T02:02:49.022Z,100.00
2022-12-23T02:04:01.762Z,100.00
2022-12-23T02:05:08.301Z,100.00
2022-12-23T02:07:04.373Z,100.00
2022-12-23T02:08:45.469Z,100.00
2022-12-23T02:12:18.093Z,100.00
2022-12-23T02:14:10.492Z,100.00
2022-12-23T02:16:11.062Z,100.00
2022-12-23T02:17:31.127Z,100.00
2022-12-23T02:19:06.380Z,100.00
2022-12-23T02:20:40.992Z,100.00
2022-12-23T02:22:25.249Z,100.00
2022-12-23T02:24:09.255Z,100.00
2022-12-23T02:25:44.999Z,100.00
2022-12-23T02:27:26.925Z,100.00
2022-12-23T02:28:55.167Z,100.00
2022-12-23T02:30:11.454Z,100.00
2022-12-23T02:31:38.075Z,100.00
2022-12-23T02:33:03.758Z,100.00
2022-12-23T02:34:27.414Z,100.00
2022-12-23T02:35:54.593Z,100.00
2022-12-23T02:37:43.562Z,100.00
2022-12-23T02:39:37.138Z,100.00
2022-12-23T02:40:56.399Z,100.00
2022-12-23T02:42:16.667Z,100.00
2022-12-23T02:43:43.488Z,100.00
2022-12-23T02:45:02.846Z,100.00
2022-12-23T02:46:52.101Z,100.00
2022-12-23T02:48:22.798Z,100.00
2022-12-23T02:49:50.098Z,100.00
2022-12-23T02:50:58.238Z,100.00
2022-12-23T02:52:14.721Z,100.00
2022-12-23T02:53:55.145Z,100.00
2022-12-23T02:55:08.993Z,100.00
2022-12-23T02:56:16.035Z,100.00
2022-12-23T02:57:31.872Z,100.00
2022-12-23T02:58:48.305Z,100.00
2022-12-23T02:59:58.196Z,100.00
2022-12-23T03:01:06.690Z,100.00
2022-12-23T03:02:11.659Z,100.00
2022-12-23T03:03:28.807Z,100.00
2022-12-23T03:04:41.405Z,100.00
2022-12-23T03:05:49.208Z,100.00
2022-12-23T03:06:58.094Z,100.00
2022-12-23T03:08:15.912Z,100.00
2022-12-23T03:09:39.077Z,100.00
2022-12-23T03:11:03.292Z,100.00
2022-12-23T03:12:25.111Z,100.00
2022-12-23T03:13:56.041Z,100.00
2022-12-23T03:15:23.919Z,100.00
2022-12-23T03:16:32.881Z,100.00
2022-12-23T03:18:28.380Z,100.00
2022-12-23T03:19:48.152Z,100.00
2022-12-23T03:21:06.761Z,100.00
2022-12-23T03:22:44.004Z,100.00
2022-12-23T03:24:09.371Z,100.00
2022-12-23T03:26:01.325Z,100.00
2022-12-23T03:27:12.693Z,100.00
2022-12-23T03:28:41.806Z,100.00
2022-12-23T03:30:06.993Z,100.00
2022-12-23T03:31:18.532Z,100.00
2022-12-23T03:32:27.668Z,100.00
2022-12-23T03:33:46.309Z,100.00
2022-12-23T03:34:57.054Z,100.00
2022-12-23T03:36:24.448Z,100.00
2022-12-23T03:37:32.991Z,100.00
2022-12-23T03:38:41.543Z,100.00
2022-12-23T03:39:57.484Z,100.00
2022-12-23T03:41:13.886Z,100.00
2022-12-23T03:42:33.637Z,100.00
2022-12-23T03:43:55.269Z,100.00
2022-12-23T03:46:48.951Z,100.00
2022-12-23T03:48:06.977Z,100.00
2022-12-23T03:49:27.993Z,100.00
2022-12-23T03:50:37.292Z,100.00
2022-12-23T03:51:52.863Z,100.00
2022-12-23T03:53:15.958Z,100.00
2022-12-23T03:54:31.878Z,100.00
2022-12-23T03:55:59.689Z,100.00
2022-12-23T03:57:26.906Z,100.00
2022-12-23T03:58:39.923Z,100.00
2022-12-23T03:59:54.000Z,100.00
2022-12-23T04:01:30.490Z,100.00
2022-12-23T04:02:51.143Z,100.00
2022-12-23T04:04:37.531Z,100.00
2022-12-23T04:05:47.304Z,100.00
2022-12-23T04:07:15.807Z,100.00
2022-12-23T04:08:40.219Z,100.00
2022-12-23T04:09:45.298Z,100.00
2022-12-23T04:10:51.892Z,100.00
2022-12-23T04:11:58.695Z,100.00
2022-12-23T04:13:04.678Z,100.00
2022-12-23T04:14:10.166Z,100.00
2022-12-23T04:15:21.512Z,100.00
2022-12-23T04:16:27.491Z,100.00
2022-12-23T04:17:32.252Z,100.00
2022-12-23T04:18:36.511Z,100.00
2022-12-23T04:19:40.906Z,100.00
2022-12-23T04:20:48.058Z,100.00
2022-12-23T04:21:53.213Z,100.00
2022-12-23T04:22:56.727Z,100.00
2022-12-23T04:24:00.820Z,100.00
2022-12-23T04:25:06.827Z,100.00
2022-12-23T04:26:11.187Z,100.00
2022-12-23T04:27:16.594Z,100.00
2022-12-23T04:28:20.572Z,100.00
2022-12-23T04:29:24.277Z,100.00
2022-12-23T04:30:33.555Z,100.00
2022-12-23T04:31:38.861Z,100.00
2022-12-23T04:32:43.696Z,100.00
2022-12-23T04:33:47.997Z,100.00
2022-12-23T04:34:56.592Z,100.00
2022-12-23T04:36:01.308Z,100.00
2022-12-23T04:37:09.368Z,100.00
2022-12-23T04:38:14.568Z,100.00
2022-12-23T04:39:20.133Z,100.00
2022-12-23T04:40:24.532Z,100.00
2022-12-23T04:41:29.154Z,100.00
2022-12-23T04:42:33.078Z,100.00
2022-12-23T04:43:37.501Z,100.00
2022-12-23T04:44:41.088Z,100.00
2022-12-23T04:45:49.917Z,100.00
2022-12-23T04:46:54.086Z,100.00
2022-12-23T04:47:58.826Z,100.00
2022-12-23T04:49:11.125Z,100.00
2022-12-23T04:50:18.650Z,100.00
2022-12-23T04:51:25.350Z,100.00
2022-12-23T04:52:29.733Z,100.00
2022-12-23T04:53:36.716Z,100.00
2022-12-23T04:54:45.816Z,100.00
2022-12-23T04:55:55.500Z,100.00
2022-12-23T04:56:59.187Z,100.00
2022-12-23T04:58:05.534Z,100.00
2022-12-23T04:59:11.554Z,100.00
2022-12-23T05:00:20.140Z,100.00
2022-12-23T05:01:24.705Z,100.00
2022-12-23T05:02:30.235Z,100.00
2022-12-23T05:03:34.984Z,100.00
2022-12-23T05:04:45.269Z,100.00
2022-12-23T05:05:49.898Z,100.00
2022-12-23T05:06:55.929Z,100.00
2022-12-23T05:08:05.651Z,100.00
2022-12-23T05:09:12.206Z,100.00
2022-12-23T05:10:17.451Z,100.00
2022-12-23T05:11:21.124Z,100.00
2022-12-23T05:12:24.993Z,100.00
2022-12-23T05:13:28.596Z,100.00
2022-12-23T05:14:32.915Z,100.00
2022-12-23T05:15:36.739Z,100.00
2022-12-23T05:16:40.861Z,100.00
2022-12-23T05:17:44.753Z,100.00
2022-12-23T05:18:49.226Z,100.00
2022-12-23T05:19:53.320Z,100.00
2022-12-23T05:20:56.953Z,100.00
2022-12-23T05:22:03.235Z,100.00
2022-12-23T05:23:08.418Z,100.00
2022-12-23T05:24:16.489Z,100.00
2022-12-23T05:25:21.664Z,100.00
2022-12-23T05:26:28.564Z,100.00
2022-12-23T05:27:37.541Z,100.00
2022-12-23T05:28:43.586Z,100.00
2022-12-23T05:29:47.322Z,100.00
2022-12-23T05:31:00.124Z,100.00
2022-12-23T05:32:05.934Z,100.00
2022-12-23T05:33:13.931Z,100.00
2022-12-23T05:34:20.289Z,100.00
2022-12-23T05:35:27.053Z,100.00
2022-12-23T05:36:31.170Z,100.00
2022-12-23T05:37:35.561Z,100.00
2022-12-23T05:38:41.251Z,100.00
2022-12-23T05:39:45.620Z,100.00
2022-12-23T05:40:50.063Z,100.00
2022-12-23T05:41:54.222Z,100.00
2022-12-23T05:42:57.723Z,100.00
2022-12-23T05:44:01.321Z,100.00
2022-12-23T05:45:06.979Z,100.00
2022-12-23T05:46:26.222Z,100.00
2022-12-23T05:47:32.882Z,100.00
2022-12-23T05:48:36.563Z,100.00
2022-12-23T05:49:40.984Z,100.00
2022-12-23T05:50:50.922Z,100.00
2022-12-23T05:51:54.993Z,100.00
2022-12-23T05:53:00.213Z,100.00
2022-12-23T05:54:04.226Z,100.00
2022-12-23T05:55:11.975Z,100.00
2022-12-23T05:56:17.365Z,100.00
2022-12-23T05:57:23.056Z,100.00
2022-12-23T05:58:28.211Z,100.00
2022-12-23T05:59:35.396Z,100.00
2022-12-23T06:00:44.431Z,100.00
2022-12-23T06:01:51.465Z,100.00
2022-12-23T06:02:55.716Z,100.00
2022-12-23T06:04:05.923Z,100.00
2022-12-23T06:05:12.793Z,100.00
2022-12-23T06:06:24.865Z,100.00
2022-12-23T06:07:28.398Z,100.00
2022-12-23T06:08:32.086Z,100.00
2022-12-23T06:09:35.955Z,100.00
2022-12-23T06:10:46.737Z,100.00
2022-12-23T06:11:54.034Z,100.00
2022-12-23T06:13:04.110Z,100.00
2022-12-23T06:14:11.098Z,100.00
2022-12-23T06:15:17.034Z,100.00
2022-12-23T06:16:21.075Z,100.00
2022-12-23T06:17:27.203Z,100.00
2022-12-23T06:18:31.403Z,100.00
2022-12-23T06:19:37.085Z,100.00
2022-12-23T06:20:41.021Z,100.00
2022-12-23T06:21:45.785Z,100.00
2022-12-23T06:22:49.541Z,100.00
2022-12-23T06:23:53.345Z,100.00
2022-12-23T06:24:57.370Z,100.00
2022-12-23T06:26:03.295Z,100.00
2022-12-23T06:27:09.309Z,100.00
2022-12-23T06:28:16.836Z,100.00
2022-12-23T06:29:24.112Z,100.00
2022-12-23T06:30:29.815Z,100.00
2022-12-23T06:31:34.481Z,100.00
2022-12-23T06:32:41.171Z,100.00
2022-12-23T06:33:45.130Z,100.00
2022-12-23T06:34:53.727Z,100.00
2022-12-23T06:35:58.557Z,100.00
2022-12-23T06:37:02.847Z,100.00
2022-12-23T06:38:12.036Z,100.00
2022-12-23T06:39:20.971Z,100.00
2022-12-23T06:40:25.743Z,100.00
2022-12-23T06:41:53.441Z,100.00
2022-12-23T06:42:59.823Z,100.00
2022-12-23T06:44:05.063Z,100.00
2022-12-23T06:45:19.256Z,100.00
2022-12-23T06:46:23.705Z,100.00
2022-12-23T06:47:29.030Z,100.00
2022-12-23T06:48:35.351Z,100.00
2022-12-23T06:49:39.275Z,100.00
2022-12-23T06:50:43.659Z,100.00
2022-12-23T06:51:47.844Z,100.00
2022-12-23T06:52:51.509Z,100.00
2022-12-23T06:53:55.438Z,100.00
2022-12-23T06:55:04.477Z,100.00
2022-12-23T06:56:16.262Z,100.00
2022-12-23T06:57:21.093Z,100.00
2022-12-23T06:58:25.467Z,100.00
2022-12-23T06:59:34.137Z,100.00
2022-12-23T07:00:39.395Z,100.00
2022-12-23T07:01:45.087Z,100.00
2022-12-23T07:02:49.333Z,100.00
2022-12-23T07:03:53.408Z,100.00
2022-12-23T07:05:00.003Z,100.00
2022-12-23T07:06:03.955Z,100.00
2022-12-23T07:07:12.669Z,100.00
2022-12-23T07:08:18.480Z,100.00
2022-12-23T07:09:24.885Z,100.00
2022-12-23T07:10:38.385Z,100.00
2022-12-23T07:11:42.118Z,100.00
2022-12-23T07:12:50.505Z,100.00
2022-12-23T07:13:54.725Z,100.00
2022-12-23T07:14:58.239Z,100.00
2022-12-23T07:16:13.040Z,100.00
2022-12-23T07:17:17.173Z,100.00
2022-12-23T07:18:25.601Z,100.00
2022-12-23T07:19:29.209Z,100.00
2022-12-23T07:20:32.913Z,100.00
2022-12-23T07:21:36.908Z,100.00
2022-12-23T07:22:41.487Z,100.00
2022-12-23T07:23:45.729Z,100.00
2022-12-23T07:24:49.476Z,100.00
2022-12-23T07:25:54.289Z,100.00
2022-12-23T07:26:58.570Z,100.00
2022-12-23T07:28:03.804Z,100.00
2022-12-23T07:29:09.229Z,100.00
2022-12-23T07:30:13.459Z,100.00
2022-12-23T07:31:22.295Z,100.00
2022-12-23T07:32:29.448Z,100.00
2022-12-23T07:33:34.066Z,100.00
2022-12-23T07:34:39.995Z,100.00
2022-12-23T07:35:45.571Z,100.00
2022-12-23T07:36:49.846Z,100.00
2022-12-23T07:38:01.484Z,100.00
2022-12-23T07:39:06.073Z,100.00
2022-12-23T07:40:12.149Z,100.00
2022-12-23T07:41:15.767Z,100.00
2022-12-23T07:42:44.214Z,100.00
2022-12-23T07:43:49.039Z,100.00
2022-12-23T07:44:52.909Z,100.00
2022-12-23T07:46:01.132Z,100.00
2022-12-23T07:47:07.418Z,100.00
2022-12-23T07:48:16.756Z,100.00
2022-12-23T07:49:21.720Z,100.00
2022-12-23T07:50:46.380Z,100.00
2022-12-23T07:51:50.871Z,100.00
2022-12-23T07:52:59.474Z,100.00
2022-12-23T07:54:03.629Z,100.00
2022-12-23T07:55:15.001Z,100.00
2022-12-23T07:56:19.992Z,100.00
2022-12-23T07:57:30.162Z,100.00
2022-12-23T07:58:33.898Z,100.00
2022-12-23T07:59:38.851Z,100.00
2022-12-23T08:00:43.161Z,100.00
2022-12-23T08:01:51.345Z,100.00
2022-12-23T08:02:55.730Z,100.00
2022-12-23T08:04:02.705Z,100.00
2022-12-23T08:05:11.676Z,100.00
2022-12-23T08:06:20.318Z,100.00
2022-12-23T08:07:25.575Z,100.00
2022-12-23T08:08:30.443Z,100.00
2022-12-23T08:09:34.121Z,100.00
2022-12-23T08:10:47.749Z,100.00
2022-12-23T08:11:56.049Z,100.00
2022-12-23T08:13:04.435Z,100.00
2022-12-23T08:14:10.825Z,100.00
2022-12-23T08:15:19.349Z,100.00
2022-12-23T08:16:23.772Z,100.00
2022-12-23T08:17:32.463Z,100.00
2022-12-23T08:18:40.914Z,100.00
2022-12-23T08:19:52.976Z,100.00
2022-12-23T08:21:11.776Z,100.00
2022-12-23T08:22:16.142Z,100.00
2022-12-23T08:23:24.749Z,100.00
2022-12-23T08:24:30.494Z,100.00
2022-12-23T08:25:34.268Z,100.00
2022-12-23T08:26:38.823Z,100.00
2022-12-23T08:27:46.331Z,100.00
2022-12-23T08:28:54.575Z,100.00
2022-12-23T08:29:58.470Z,100.00
2022-12-23T08:31:24.443Z,100.00
2022-12-23T08:32:28.799Z,100.00
2022-12-23T08:33:33.804Z,100.00
2022-12-23T08:34:39.501Z,100.00
2022-12-23T08:35:46.647Z,100.00
2022-12-23T08:36:51.948Z,100.00
2022-12-23T08:37:59.404Z,100.00
2022-12-23T08:39:18.750Z,100.00
2022-12-23T08:40:30.311Z,100.00
2022-12-23T08:41:46.051Z,100.00
2022-12-23T08:42:49.710Z,100.00
2022-12-23T08:43:55.342Z,100.00
2022-12-23T08:45:01.114Z,100.00
2022-12-23T08:46:06.260Z,100.00
2022-12-23T08:47:12.019Z,100.00
2022-12-23T08:48:17.070Z,100.00
2022-12-23T08:49:23.199Z,100.00
2022-12-23T08:50:27.787Z,100.00
2022-12-23T08:51:32.190Z,100.00
2022-12-23T08:52:36.191Z,100.00
2022-12-23T08:53:41.623Z,100.00
2022-12-23T08:54:45.440Z,100.00
2022-12-23T08:55:55.449Z,100.00
2022-12-23T08:57:00.342Z,100.00
2022-12-23T08:58:15.695Z,100.00
2022-12-23T08:59:21.628Z,100.00
2022-12-23T09:00:29.580Z,100.00
2022-12-23T09:01:35.318Z,100.00
2022-12-23T09:02:41.096Z,100.00
2022-12-23T09:03:45.911Z,100.00
2022-12-23T09:04:54.661Z,100.00
2022-12-23T09:06:06.310Z,100.00
2022-12-23T09:07:12.486Z,100.00
2022-12-23T09:08:24.521Z,100.00
2022-12-23T09:09:30.946Z,100.00
2022-12-23T09:10:45.064Z,100.00
2022-12-23T09:11:48.593Z,100.00
2022-12-23T09:12:52.587Z,100.00
2022-12-23T09:13:59.970Z,100.00
2022-12-23T09:15:03.875Z,100.00
2022-12-23T09:16:11.376Z,100.00
2022-12-23T09:17:15.414Z,100.00
2022-12-23T09:18:22.126Z,100.00
2022-12-23T09:19:26.070Z,100.00
2022-12-23T09:20:29.778Z,100.00
2022-12-23T09:21:34.170Z,100.00
2022-12-23T09:22:37.737Z,100.00
2022-12-23T09:23:44.943Z,100.00
2022-12-23T09:24:49.002Z,100.00
2022-12-23T09:25:57.250Z,100.00
2022-12-23T09:27:00.924Z,100.00
2022-12-23T09:28:27.749Z,100.00
2022-12-23T09:29:31.456Z,100.00
2022-12-23T09:30:35.583Z,100.00
2022-12-23T09:31:39.856Z,100.00
2022-12-23T09:32:44.429Z,100.00
2022-12-23T09:33:52.672Z,100.00
2022-12-23T09:34:58.682Z,100.00
2022-12-23T09:36:13.131Z,100.00
2022-12-23T09:37:23.772Z,100.00
2022-12-23T09:38:33.784Z,100.00
2022-12-23T09:39:40.037Z,100.00
2022-12-23T09:40:44.286Z,100.00
2022-12-23T09:42:27.818Z,100.00
2022-12-23T09:44:16.415Z,100.00
2022-12-23T09:46:05.733Z,100.00
2022-12-23T09:47:19.988Z,100.00
2022-12-23T09:48:32.816Z,100.00
2022-12-23T09:49:49.312Z,100.00
2022-12-23T09:50:56.688Z,100.00
2022-12-23T09:52:15.501Z,100.00
2022-12-23T09:53:26.092Z,100.00
2022-12-23T09:54:49.835Z,100.00
2022-12-23T09:56:18.639Z,100.00
2022-12-23T09:57:42.513Z,100.00
2022-12-23T09:59:25.775Z,100.00
2022-12-23T10:00:43.425Z,100.00
2022-12-23T10:02:15.504Z,100.00
2022-12-23T10:04:24.667Z,100.00
2022-12-23T10:06:02.649Z,100.00
2022-12-23T10:07:08.010Z,100.00
2022-12-23T10:08:39.443Z,100.00
2022-12-23T10:09:50.246Z,100.00
2022-12-23T10:11:19.219Z,100.00
2022-12-23T10:12:50.070Z,100.00
2022-12-23T10:14:13.455Z,100.00
2022-12-23T10:15:34.484Z,100.00
2022-12-23T10:16:53.489Z,100.00
2022-12-23T10:18:10.778Z,100.00
2022-12-23T10:19:28.863Z,100.00
2022-12-23T10:20:47.469Z,100.00
2022-12-23T10:22:01.279Z,100.00
2022-12-23T10:23:22.005Z,100.00
2022-12-23T10:24:45.227Z,100.00
2022-12-23T10:26:00.643Z,100.00
2022-12-23T10:27:27.173Z,100.00
2022-12-23T10:28:35.057Z,100.00
2022-12-23T10:29:47.035Z,100.00
2022-12-23T10:31:40.155Z,100.00
2022-12-23T10:33:40.416Z,100.00
2022-12-23T10:35:21.094Z,100.00
2022-12-23T10:37:19.993Z,100.00
2022-12-23T10:39:22.169Z,100.00
2022-12-23T10:40:53.084Z,100.00
2022-12-23T10:42:46.602Z,100.00
2022-12-23T10:44:18.478Z,100.00
2022-12-23T10:45:42.476Z,100.00
2022-12-23T10:47:17.070Z,100.00
2022-12-23T10:49:15.143Z,100.00
2022-12-23T10:50:46.632Z,100.00
2022-12-23T10:52:01.223Z,100.00
2022-12-23T10:53:15.439Z,100.00
2022-12-23T10:54:31.995Z,100.00
2022-12-23T10:55:39.485Z,100.00
2022-12-23T10:56:46.647Z,100.00
2022-12-23T10:57:52.668Z,100.00
2022-12-23T10:59:02.431Z,99.72
2022-12-23T11:00:28.064Z,100.00
2022-12-23T11:01:34.365Z,100.00
2022-12-23T11:03:28.384Z,100.00
2022-12-23T11:04:51.926Z,100.00
2022-12-23T11:05:59.158Z,100.00
2022-12-23T11:08:43.532Z,100.00
2022-12-23T11:10:21.762Z,100.00
2022-12-23T11:11:56.085Z,100.00
2022-12-23T11:13:09.411Z,100.00
2022-12-23T11:14:39.576Z,100.00
2022-12-23T11:15:43.358Z,100.00
2022-12-23T11:16:47.380Z,100.00
2022-12-23T11:18:27.256Z,100.00
2022-12-23T11:19:31.285Z,100.00
2022-12-23T11:20:38.929Z,100.00
2022-12-23T11:21:58.390Z,100.00
2022-12-23T11:23:05.276Z,100.00
2022-12-23T11:24:25.349Z,100.00
2022-12-23T11:25:42.038Z,100.00
2022-12-23T11:26:51.768Z,100.00
2022-12-23T11:28:14.721Z,100.00
2022-12-23T11:29:31.797Z,100.00
2022-12-23T11:30:55.482Z,100.00
2022-12-23T11:32:22.482Z,100.00
2022-12-23T11:33:40.949Z,100.00
2022-12-23T11:34:49.745Z,100.00
2022-12-23T11:36:14.117Z,100.00
2022-12-23T11:37:43.693Z,100.00
2022-12-23T11:39:29.533Z,100.00
2022-12-23T11:40:44.343Z,100.00
2022-12-23T11:41:55.823Z,100.00
2022-12-23T11:43:17.501Z,100.00
2022-12-23T11:44:45.279Z,100.00
2022-12-23T11:46:09.742Z,100.00
2022-12-23T11:47:23.248Z,100.00
2022-12-23T11:48:34.214Z,100.00
2022-12-23T11:50:02.133Z,100.00
2022-12-23T11:51:08.056Z,100.00
2022-12-23T11:52:19.127Z,99.89
2022-12-23T11:53:33.898Z,100.00
2022-12-23T11:54:38.286Z,100.00
2022-12-23T11:56:09.902Z,99.67
2022-12-23T11:57:21.816Z,99.74
2022-12-23T11:58:28.607Z,99.81
2022-12-23T11:59:50.194Z,99.58
2022-12-23T12:01:26.358Z,99.43
2022-12-23T12:02:43.251Z,99.42
2022-12-23T12:04:00.296Z,99.18
2022-12-23T12:05:35.683Z,98.97
2022-12-23T12:06:54.192Z,98.76
2022-12-23T12:08:22.592Z,98.76
2022-12-23T12:09:30.987Z,99.01
2022-12-23T12:10:38.554Z,98.87
2022-12-23T12:12:20.419Z,98.91
2022-12-23T12:13:39.459Z,98.95
2022-12-23T12:14:58.995Z,98.70
2022-12-23T12:16:33.340Z,98.77
2022-12-23T12:17:53.260Z,98.57
2022-12-23T12:19:11.423Z,98.84
2022-12-23T12:20:37.201Z,98.81
2022-12-23T12:21:40.958Z,98.46
2022-12-23T12:23:05.601Z,98.55
2022-12-23T12:24:30.371Z,98.61
2022-12-23T12:25:53.109Z,98.58
2022-12-23T12:27:05.150Z,98.57
2022-12-23T12:28:39.621Z,98.36
2022-12-23T12:30:08.126Z,98.19
2022-12-23T12:31:41.350Z,98.05
2022-12-23T12:33:05.776Z,97.62
2022-12-23T12:34:48.082Z,97.31
2022-12-23T12:36:22.921Z,97.15
2022-12-23T12:37:44.640Z,97.46
2022-12-23T12:38:54.950Z,97.46
2022-12-23T12:40:07.642Z,97.14
2022-12-23T12:42:05.327Z,96.32
2022-12-23T12:43:40.485Z,96.24
2022-12-23T12:45:27.246Z,96.22
2022-12-23T12:46:57.071Z,96.36
2022-12-23T12:48:13.098Z,96.05
2022-12-23T12:49:43.851Z,96.08
2022-12-23T12:51:16.324Z,96.09
2022-12-23T12:52:28.765Z,96.24
2022-12-23T12:53:34.015Z,96.31
2022-12-23T12:54:59.751Z,96.00
2022-12-23T12:56:53.742Z,95.57
2022-12-23T12:57:58.500Z,95.96
2022-12-23T12:59:02.224Z,95.88
2022-12-23T13:00:17.424Z,95.81
2022-12-23T13:01:46.278Z,95.83
2022-12-23T13:03:24.470Z,95.60
2022-12-23T13:05:17.191Z,95.38
2022-12-23T13:07:14.815Z,95.54
2022-12-23T13:08:18.583Z,95.22
2022-12-23T13:09:47.053Z,95.54
2022-12-23T13:11:07.375Z,95.39
2022-12-23T13:12:33.330Z,95.10
2022-12-23T13:14:13.743Z,95.07
2022-12-23T13:16:10.997Z,95.10
2022-12-23T13:17:34.886Z,95.41
2022-12-23T13:18:51.134Z,95.17
2022-12-23T13:20:32.160Z,95.09
2022-12-23T13:22:16.648Z,95.07
2022-12-23T13:24:25.709Z,94.90
2022-12-23T13:25:51.639Z,94.97
2022-12-23T13:27:02.048Z,94.99
2022-12-23T13:28:36.654Z,95.24
2022-12-23T13:30:14.354Z,95.41
2022-12-23T13:31:54.707Z,95.06
2022-12-23T13:33:41.156Z,94.97
2022-12-23T13:35:27.959Z,95.13
2022-12-23T13:37:19.237Z,95.24
2022-12-23T13:39:14.840Z,95.02
2022-12-23T13:41:00.149Z,95.06
2022-12-23T13:42:10.768Z,95.39
2022-12-23T13:44:44.572Z,94.75
2022-12-23T13:45:51.952Z,95.21
2022-12-23T13:47:43.777Z,95.16
2022-12-23T13:49:32.173Z,94.86
2022-12-23T13:51:11.987Z,95.07
2022-12-23T13:52:31.937Z,95.16
2022-12-23T13:54:12.480Z,95.29
2022-12-23T13:55:37.670Z,95.24
2022-12-23T13:57:36.886Z,95.47
2022-12-23T13:58:42.216Z,95.64
2022-12-23T14:00:05.455Z,95.97
2022-12-23T14:01:13.439Z,96.44
2022-12-23T14:02:38.079Z,96.54
2022-12-23T14:03:41.973Z,96.69
2022-12-23T14:05:00.683Z,96.33
2022-12-23T14:06:25.245Z,96.49
2022-12-23T14:07:33.987Z,96.85
2022-12-23T14:08:44.825Z,97.04
2022-12-23T14:09:58.297Z,97.46
2022-12-23T14:11:15.545Z,97.40
2022-12-23T14:12:42.676Z,97.16
2022-12-23T14:13:56.589Z,97.14
2022-12-23T14:15:43.349Z,96.97
2022-12-23T14:17:03.623Z,96.88
2022-12-23T14:19:07.840Z,96.88
2022-12-23T14:20:46.982Z,97.08
2022-12-23T14:22:49.252Z,97.01
2022-12-23T14:24:18.035Z,96.94
2022-12-23T14:26:01.032Z,97.50
2022-12-23T14:27:41.219Z,97.39
2022-12-23T14:28:58.084Z,98.17
2022-12-23T14:30:46.002Z,97.94
2022-12-23T14:32:02.069Z,97.86
2022-12-23T14:33:18.687Z,98.04
2022-12-23T14:34:33.123Z,98.18
2022-12-23T14:35:42.840Z,97.86
2022-12-23T14:37:18.011Z,97.83
2022-12-23T14:38:37.772Z,97.90
2022-12-23T14:39:44.707Z,97.55
2022-12-23T14:41:18.715Z,97.91
2022-12-23T14:42:49.110Z,97.76
2022-12-23T14:43:57.273Z,97.46
2022-12-23T14:45:37.744Z,97.51
2022-12-23T14:46:43.364Z,97.49
2022-12-23T14:47:53.603Z,97.56
2022-12-23T14:49:37.551Z,97.58
2022-12-23T14:50:35.256Z,97.66
2022-12-23T14:51:41.417Z,97.41
2022-12-23T14:53:02.859Z,97.33
2022-12-23T14:54:07.500Z,97.13
2022-12-23T14:55:31.645Z,97.22
2022-12-23T14:57:14.198Z,97.18
2022-12-23T14:58:39.256Z,97.35
2022-12-23T15:00:09.088Z,97.43
2022-12-23T15:01:17.976Z,97.33
2022-12-23T15:02:33.921Z,97.50
2022-12-23T15:03:55.970Z,97.46
2022-12-23T15:05:05.995Z,97.32
2022-12-23T15:06:42.938Z,97.13
2022-12-23T15:07:47.918Z,97.21
2022-12-23T15:08:55.911Z,97.63
2022-12-23T15:10:06.643Z,97.74
2022-12-23T15:11:23.570Z,97.72
2022-12-23T15:12:42.176Z,97.61
2022-12-23T15:13:46.141Z,97.44
2022-12-23T15:14:58.811Z,97.80
2022-12-23T15:16:02.740Z,97.73
2022-12-23T15:17:28.324Z,97.47
2022-12-23T15:18:32.714Z,97.79
2022-12-23T15:19:50.038Z,97.37
2022-12-23T15:21:12.671Z,97.32
2022-12-23T15:22:22.702Z,97.90
2022-12-23T15:23:29.754Z,97.75
2022-12-23T15:24:34.981Z,97.89
2022-12-23T15:25:46.405Z,98.10
2022-12-23T15:27:25.084Z,97.99
2022-12-23T15:28:27.551Z,97.82
2022-12-23T15:29:33.006Z,97.96
2022-12-23T15:30:51.761Z,98.22
2022-12-23T15:32:02.413Z,98.09
2022-12-23T15:33:34.854Z,98.46
2022-12-23T15:34:34.635Z,98.38
2022-12-23T15:35:40.639Z,98.33
2022-12-23T15:37:04.562Z,98.74
2022-12-23T15:38:17.444Z,98.30
2022-12-23T15:39:44.939Z,98.07
2022-12-23T15:41:07.795Z,97.87
2022-12-23T15:42:33.009Z,98.02
2022-12-23T15:43:43.599Z,98.05
2022-12-23T15:44:48.644Z,98.04
2022-12-23T15:45:54.109Z,98.24
2022-12-23T15:46:59.929Z,97.91
2022-12-23T15:48:26.217Z,98.14
2022-12-23T15:49:32.081Z,98.08
2022-12-23T15:50:45.685Z,98.47
2022-12-23T15:52:13.977Z,98.35
2022-12-23T15:53:31.745Z,98.50
2022-12-23T15:54:45.728Z,98.80
2022-12-23T15:55:50.526Z,98.88
2022-12-23T15:56:57.874Z,98.46
2022-12-23T15:58:06.048Z,98.77